Time,TemperatureF,DewpointF,PressureIn,WindDirection,WindDirectionDegrees,WindSpeedMPH,WindSpeedGustMPH,Humidity,HourlyPrecipIn,Conditions,Clouds,dailyrainin,SoftwareType,DateUTC
2013-05-29 00:00:00,77.9,70.5,30.04,SE,134,0.0,0.0,78,0.00,RA,OVC,0.00,WeatherDisplay:10.37,2013-05-29 04:00:00,
2013-05-29 00:01:00,77.9,70.5,30.04,SE,134,0.0,0.0,78,0.00,RA,OVC,0.00,WeatherDisplay:10.37,2013-05-29 04:01:00,
2013-05-29 00:06:00,77.7,70.3,30.04,ENE,67,0.0,0.0,78,0.00,RA,OVC,0.00,WeatherDisplay:10.37,2013-05-29 04:06:00,
2013-05-29 00:11:00,77.7,70.3,30.04,SSE,147,8.1,8.1,78,0.00,,OVC,0.00,WeatherDisplay:10.37,2013-05-29 04:11:00,
2013-05-29 00:16:00,77.7,70.3,30.03,SE,133,0.0,0.0,78,0.00,,OVC,0.00,WeatherDisplay:10.37,2013-05-29 04:16:00,
2013-05-29 00:21:00,77.6,69.8,30.03,ENE,76,12.0,12.0,77,0.00,,OVC,0.00,WeatherDisplay:10.37,2013-05-29 04:21:00,
2013-05-29 00:26:00,77.6,69.8,30.03,East,81,0.0,0.0,77,0.00,,OVC,0.00,WeatherDisplay:10.37,2013-05-29 04:26:00,
2013-05-29 00:31:00,77.6,69.8,30.03,East,95,9.0,9.0,77,0.00,,OVC,0.00,WeatherDisplay:10.37,2013-05-29 04:31:00,
2013-05-29 00:36:00,77.7,70.3,30.03,ESE,123,8.1,0.0,78,0.00,,OVC,0.00,WeatherDisplay:10.37,2013-05-29 04:36:00,
2013-05-29 00:41:00,77.7,70.3,30.03,NE,55,3.5,3.5,78,0.00,,OVC,0.00,WeatherDisplay:10.37,2013-05-29 04:41:00,
2013-05-29 00:46:00,77.7,70.3,30.03,East,89,7.0,7.0,78,0.00,,OVC,0.00,WeatherDisplay:10.37,2013-05-29 04:46:00,
2013-05-29 00:51:00,77.7,70.3,30.03,ENE,60,8.1,8.1,78,0.00,,OVC,0.00,WeatherDisplay:10.37,2013-05-29 04:51:00,
2013-05-29 00:56:00,77.9,70.5,30.03,East,101,11.5,11.5,78,0.00,,OVC,0.00,WeatherDisplay:10.37,2013-05-29 04:56:00,
2013-05-29 01:01:00,77.9,70.5,30.04,SSE,162,14.0,14.0,78,0.00,,OVC,0.00,WeatherDisplay:10.37,2013-05-29 05:01:00,
2013-05-29 01:06:00,78.1,71.1,30.04,SE,128,3.5,3.5,79,0.00,,OVC,0.00,WeatherDisplay:10.37,2013-05-29 05:06:00,
2013-05-29 01:11:00,78.1,71.1,30.04,ENE,72,4.6,4.6,79,0.00,,OVC,0.00,WeatherDisplay:10.37,2013-05-29 05:11:00,
2013-05-29 01:16:00,78.1,71.1,30.03,ENE,70,21.9,21.9,79,0.00,,OVC,0.00,WeatherDisplay:10.37,2013-05-29 05:16:00,
2013-05-29 01:21:00,78.1,71.1,30.03,ENE,65,9.2,9.2,79,0.00,,OVC,0.00,WeatherDisplay:10.37,2013-05-29 05:21:00,
2013-05-29 01:26:00,78.1,71.1,30.03,ENE,63,0.0,0.0,79,0.00,,OVC,0.00,WeatherDisplay:10.37,2013-05-29 05:26:00,
2013-05-29 01:31:00,78.1,71.1,30.02,ENE,67,11.5,11.5,79,0.00,,OVC,0.00,WeatherDisplay:10.37,2013-05-29 05:31:00,
2013-05-29 01:36:00,77.7,71.0,30.02,ENE,57,19.6,19.6,80,0.03,RA,OVC,0.03,WeatherDisplay:10.37,2013-05-29 05:36:00,
2013-05-29 01:41:00,77.0,71.1,30.02,NE,53,3.5,3.5,82,0.03,RA,OVC,0.03,WeatherDisplay:10.37,2013-05-29 05:41:00,
2013-05-29 01:46:00,76.3,70.8,30.02,ENE,61,12.7,12.7,83,0.03,,OVC,0.03,WeatherDisplay:10.37,2013-05-29 05:46:00,
2013-05-29 01:51:00,76.0,70.8,30.02,East,97,13.8,13.8,84,0.03,,OVC,0.03,WeatherDisplay:10.37,2013-05-29 05:51:00,
2013-05-29 01:56:00,75.6,70.4,30.02,ENE,66,13.0,13.0,84,0.03,,OVC,0.03,WeatherDisplay:10.37,2013-05-29 05:56:00,
2013-05-29 02:01:00,75.6,70.8,30.02,East,82,9.2,9.2,85,0.03,,OVC,0.03,WeatherDisplay:10.37,2013-05-29 06:01:00,
2013-05-29 02:06:00,75.6,70.8,30.02,ENE,64,1.2,0.0,85,0.03,,OVC,0.03,WeatherDisplay:10.37,2013-05-29 06:06:00,
2013-05-29 02:12:00,75.6,70.8,30.02,ENE,68,8.1,0.0,85,0.03,,OVC,0.03,WeatherDisplay:10.37,2013-05-29 06:12:00,
2013-05-29 02:17:00,75.4,70.6,30.02,NNE,31,0.0,0.4,85,0.03,,OVC,0.03,WeatherDisplay:10.37,2013-05-29 06:17:00,
2013-05-29 02:22:00,75.4,70.9,30.02,ENE,69,0.0,0.0,86,0.03,,OVC,0.03,WeatherDisplay:10.37,2013-05-29 06:22:00,
2013-05-29 02:27:00,75.4,70.9,30.02,ENE,69,6.9,6.9,86,0.03,,OVC,0.03,WeatherDisplay:10.37,2013-05-29 06:27:00,
2013-05-29 02:32:00,75.3,70.8,30.01,NNE,24,4.6,0.0,86,0.03,,OVC,0.03,WeatherDisplay:10.37,2013-05-29 06:32:00,
2013-05-29 02:37:00,75.3,70.8,30.01,NNE,27,0.0,0.0,86,0.00,,OVC,0.03,WeatherDisplay:10.37,2013-05-29 06:37:00,
2013-05-29 02:42:00,75.4,71.3,30.01,ENE,70,8.1,8.1,87,0.00,,OVC,0.03,WeatherDisplay:10.37,2013-05-29 06:42:00,
2013-05-29 02:47:00,75.4,71.3,30.01,ENE,74,4.0,4.0,87,0.00,,OVC,0.03,WeatherDisplay:10.37,2013-05-29 06:47:00,
2013-05-29 02:52:00,75.6,71.5,30.01,ENE,73,0.0,0.0,87,0.00,,OVC,0.03,WeatherDisplay:10.37,2013-05-29 06:52:00,
2013-05-29 02:57:00,75.6,71.5,30.01,ENE,74,0.0,0.0,87,0.00,,OVC,0.03,WeatherDisplay:10.37,2013-05-29 06:57:00,
2013-05-29 03:02:00,75.6,71.5,30.01,ENE,72,0.0,0.0,87,0.00,,OVC,0.03,WeatherDisplay:10.37,2013-05-29 07:02:00,
2013-05-29 03:07:00,75.6,71.5,30.01,NE,56,11.5,0.0,87,0.00,,OVC,0.03,WeatherDisplay:10.37,2013-05-29 07:07:00,
2013-05-29 03:12:00,75.8,71.7,30.01,ENE,58,0.0,0.0,87,0.00,,OVC,0.03,WeatherDisplay:10.37,2013-05-29 07:12:00,
2013-05-29 03:17:00,75.8,71.7,30.00,ENE,59,0.0,0.0,87,0.00,,OVC,0.03,WeatherDisplay:10.37,2013-05-29 07:17:00,
2013-05-29 03:22:00,75.8,71.7,30.00,ENE,63,0.0,0.0,87,0.00,,OVC,0.03,WeatherDisplay:10.37,2013-05-29 07:22:00,
2013-05-29 03:27:00,76.0,72.2,30.00,NNE,24,17.3,17.3,88,0.03,RA,OVC,0.06,WeatherDisplay:10.37,2013-05-29 07:27:00,
2013-05-29 03:32:00,75.8,72.3,29.99,NE,36,4.6,4.6,89,0.03,RA,OVC,0.06,WeatherDisplay:10.37,2013-05-29 07:32:00,
2013-05-29 03:37:00,75.6,72.1,29.99,NE,38,0.0,0.0,89,0.03,,OVC,0.06,WeatherDisplay:10.37,2013-05-29 07:37:00,
2013-05-29 03:42:00,74.9,71.1,29.99,East,83,3.5,3.5,88,0.08,RA,OVC,0.11,WeatherDisplay:10.37,2013-05-29 07:42:00,
2013-05-29 03:47:00,73.5,70.1,30.01,NE,50,19.6,19.6,89,0.14,RA,OVC,0.17,WeatherDisplay:10.37,2013-05-29 07:47:00,
2013-05-29 03:52:00,72.7,69.6,30.01,ENE,65,17.3,17.3,90,0.17,RA,OVC,0.20,WeatherDisplay:10.37,2013-05-29 07:52:00,
2013-05-29 03:57:00,72.5,69.7,30.01,SE,130,2.0,0.0,91,0.23,RA,OVC,0.26,WeatherDisplay:10.37,2013-05-29 07:57:00,
2013-05-29 04:02:00,72.3,69.8,30.01,SE,143,3.5,3.5,92,0.25,RA,OVC,0.28,WeatherDisplay:10.37,2013-05-29 08:02:00,
2013-05-29 04:07:00,72.3,69.8,30.01,ESE,119,0.0,0.0,92,0.25,RA,OVC,0.28,WeatherDisplay:10.37,2013-05-29 08:07:00,
2013-05-29 04:12:00,72.3,69.8,30.01,SE,128,3.5,3.5,92,0.25,,OVC,0.28,WeatherDisplay:10.37,2013-05-29 08:12:00,
2013-05-29 04:17:00,72.1,69.6,30.00,East,81,6.9,0.0,92,0.26,RA,OVC,0.29,WeatherDisplay:10.37,2013-05-29 08:17:00,
2013-05-29 04:22:00,72.1,70.0,30.00,East,84,0.0,0.0,93,0.26,RA,OVC,0.29,WeatherDisplay:10.37,2013-05-29 08:22:00,
2013-05-29 04:27:00,72.1,70.0,30.00,ESE,116,1.2,0.0,93,0.23,,OVC,0.29,WeatherDisplay:10.37,2013-05-29 08:27:00,
2013-05-29 04:32:00,72.1,70.0,30.00,SE,132,0.0,0.0,93,0.23,,OVC,0.29,WeatherDisplay:10.37,2013-05-29 08:32:00,
2013-05-29 04:37:00,72.1,70.0,30.00,SE,130,0.0,0.0,93,0.23,,OVC,0.29,WeatherDisplay:10.37,2013-05-29 08:37:00,
2013-05-29 04:42:00,72.3,70.2,30.00,ENE,68,11.5,11.5,93,0.18,,OVC,0.29,WeatherDisplay:10.37,2013-05-29 08:42:00,
2013-05-29 04:47:00,72.5,70.7,30.00,ENE,63,4.6,4.6,94,0.12,,OVC,0.29,WeatherDisplay:10.37,2013-05-29 08:47:00,
2013-05-29 04:52:00,72.5,70.7,30.00,ENE,65,11.0,11.0,94,0.09,,OVC,0.29,WeatherDisplay:10.37,2013-05-29 08:52:00,
2013-05-29 04:57:00,72.7,70.9,30.00,ENE,70,16.1,16.1,94,0.03,,OVC,0.29,WeatherDisplay:10.37,2013-05-29 08:57:00,
2013-05-29 05:02:00,72.7,70.9,30.00,ENE,70,13.0,13.0,94,0.01,,OVC,0.29,WeatherDisplay:10.37,2013-05-29 09:02:00,
2013-05-29 05:07:00,72.7,70.9,30.00,ENE,71,0.0,0.0,94,0.01,,OVC,0.29,WeatherDisplay:10.37,2013-05-29 09:07:00,
2013-05-29 05:12:00,72.8,71.0,30.00,ENE,66,0.0,0.0,94,0.01,,OVC,0.29,WeatherDisplay:10.37,2013-05-29 09:12:00,
2013-05-29 05:17:00,72.8,71.0,30.00,ENE,57,11.5,11.5,94,0.00,,OVC,0.29,WeatherDisplay:10.37,2013-05-29 09:17:00,
2013-05-29 05:22:00,73.0,71.2,30.00,ENE,59,0.0,0.0,94,0.00,,OVC,0.29,WeatherDisplay:10.37,2013-05-29 09:22:00,
2013-05-29 05:27:00,73.0,71.2,30.00,ENE,60,0.0,0.0,94,0.00,,OVC,0.29,WeatherDisplay:10.37,2013-05-29 09:27:00,
2013-05-29 05:32:00,72.8,71.0,30.01,ENE,60,12.7,12.7,94,0.00,,OVC,0.29,WeatherDisplay:10.37,2013-05-29 09:32:00,
2013-05-29 05:37:00,72.5,70.7,30.01,SE,139,23.0,23.0,94,0.00,,OVC,0.29,WeatherDisplay:10.37,2013-05-29 09:37:00,
2013-05-29 05:42:00,72.1,70.3,30.01,ENE,67,6.9,6.9,94,0.00,,OVC,0.29,WeatherDisplay:10.37,2013-05-29 09:42:00,
2013-05-29 05:47:00,72.1,70.3,30.00,ENE,63,3.5,0.0,94,0.00,,OVC,0.29,WeatherDisplay:10.37,2013-05-29 09:47:00,
2013-05-29 05:52:00,72.3,70.5,30.00,ENE,63,0.0,0.0,94,0.01,RA,OVC,0.30,WeatherDisplay:10.37,2013-05-29 09:52:00,
2013-05-29 05:57:00,72.3,70.5,30.00,ENE,63,0.0,0.0,94,0.02,RA,OVC,0.31,WeatherDisplay:10.37,2013-05-29 09:57:00,
2013-05-29 06:02:00,72.5,70.7,29.99,ENE,63,0.0,0.0,94,0.02,RA,OVC,0.31,WeatherDisplay:10.37,2013-05-29 10:02:00,
2013-05-29 06:07:00,72.7,70.9,29.99,ENE,77,0.0,0.0,94,0.02,,OVC,0.31,WeatherDisplay:10.37,2013-05-29 10:07:00,
2013-05-29 06:12:00,72.8,71.0,29.99,ENE,77,0.0,0.0,94,0.02,,OVC,0.31,WeatherDisplay:10.37,2013-05-29 10:12:00,
2013-05-29 06:17:00,73.0,71.5,30.01,ENE,59,1.0,1.1,95,0.13,RA,OVC,0.43,WeatherDisplay:10.37,2013-05-29 10:17:00,
2013-05-29 06:22:00,72.3,70.5,30.01,SE,133,8.1,8.1,94,0.32,RA,OVC,0.61,WeatherDisplay:10.37,2013-05-29 10:22:00,
2013-05-29 06:27:00,72.1,70.3,30.01,ENE,63,25.3,25.3,94,0.41,RA,OVC,0.71,WeatherDisplay:10.37,2013-05-29 10:27:00,
2013-05-29 06:32:00,71.8,70.0,30.01,SE,137,20.7,20.7,94,0.47,RA,OVC,0.78,WeatherDisplay:10.37,2013-05-29 10:32:00,
2013-05-29 06:37:00,71.5,69.7,30.01,SE,140,10.4,10.4,94,0.69,RA,OVC,0.99,WeatherDisplay:10.37,2013-05-29 10:37:00,
2013-05-29 06:42:00,71.1,69.3,30.01,SSE,153,11.5,11.5,94,0.85,RA,OVC,1.15,WeatherDisplay:10.37,2013-05-29 10:42:00,
2013-05-29 06:47:00,70.9,69.4,30.01,SSE,167,0.0,0.0,95,0.94,RA,OVC,1.24,WeatherDisplay:10.37,2013-05-29 10:47:00,
2013-05-29 06:52:00,70.9,69.4,30.01,SSE,167,0.0,0.0,95,0.96,RA,OVC,1.27,WeatherDisplay:10.37,2013-05-29 10:52:00,
2013-05-29 06:57:00,71.1,69.6,30.01,ESE,103,0.0,0.0,95,0.96,RA,OVC,1.27,WeatherDisplay:10.37,2013-05-29 10:57:00,
2013-05-29 07:02:00,71.3,69.8,30.02,North,5,8.1,0.0,95,0.97,RA,OVC,1.29,WeatherDisplay:10.37,2013-05-29 11:02:00,
2013-05-29 07:07:00,71.5,70.0,30.02,North,9,0.0,0.0,95,0.98,RA,OVC,1.30,WeatherDisplay:10.37,2013-05-29 11:07:00,
2013-05-29 07:12:00,71.6,70.1,30.02,NE,44,17.3,22.6,95,1.05,RA,OVC,1.37,WeatherDisplay:10.37,2013-05-29 11:12:00,
2013-05-29 07:17:00,71.3,69.8,30.03,SE,135,18.4,18.4,95,1.03,RA,OVC,1.45,WeatherDisplay:10.37,2013-05-29 11:17:00,
2013-05-29 07:22:00,71.5,70.0,30.03,ENE,72,12.7,12.7,95,0.89,RA,OVC,1.50,WeatherDisplay:10.37,2013-05-29 11:22:00,
2013-05-29 07:27:00,71.6,70.1,30.03,East,87,6.9,6.9,95,0.84,RA,OVC,1.55,WeatherDisplay:10.37,2013-05-29 11:27:00,
2013-05-29 07:33:00,71.3,69.8,30.04,ENE,59,16.1,16.1,95,0.83,RA,OVC,1.59,WeatherDisplay:10.37,2013-05-29 11:33:00,
2013-05-29 07:38:00,70.9,69.4,30.04,ENE,62,3.5,3.5,95,0.62,RA,OVC,1.61,WeatherDisplay:10.37,2013-05-29 11:38:00,
2013-05-29 07:43:00,70.9,69.4,30.04,ENE,64,6.9,6.9,95,0.47,RA,OVC,1.61,WeatherDisplay:10.37,2013-05-29 11:43:00,
2013-05-29 07:48:00,71.1,69.9,30.03,NE,55,0.0,0.0,96,0.39,RA,OVC,1.63,WeatherDisplay:10.37,2013-05-29 11:48:00,
2013-05-29 07:53:00,71.3,70.1,30.03,NE,55,0.0,0.0,96,0.37,RA,OVC,1.63,WeatherDisplay:10.37,2013-05-29 11:53:00,
2013-05-29 07:58:00,71.3,69.8,30.03,NE,55,0.0,0.0,95,0.37,RA,OVC,1.64,WeatherDisplay:10.37,2013-05-29 11:58:00,
2013-05-29 08:03:00,71.5,70.0,30.03,NE,55,0.0,0.0,95,0.36,RA,OVC,1.64,WeatherDisplay:10.37,2013-05-29 12:03:00,
2013-05-29 08:08:00,71.5,70.3,30.03,NE,46,0.0,0.0,96,0.35,,OVC,1.64,WeatherDisplay:10.37,2013-05-29 12:08:00,
2013-05-29 08:13:00,71.5,70.3,30.03,NNW,342,10.0,10.0,96,0.29,RA,OVC,1.65,WeatherDisplay:10.37,2013-05-29 12:13:00,
2013-05-29 08:18:00,71.6,70.4,30.03,North,5,5.8,0.0,96,0.20,RA,OVC,1.65,WeatherDisplay:10.37,2013-05-29 12:18:00,
2013-05-29 08:23:00,71.8,70.6,30.03,NNW,337,3.5,0.0,96,0.16,RA,OVC,1.66,WeatherDisplay:10.37,2013-05-29 12:23:00,
2013-05-29 08:28:00,71.8,70.6,30.03,NNW,339,0.0,0.0,96,0.12,RA,OVC,1.66,WeatherDisplay:10.37,2013-05-29 12:28:00,
2013-05-29 08:33:00,72.1,70.9,30.04,NNW,340,0.0,0.0,96,0.07,,OVC,1.66,WeatherDisplay:10.37,2013-05-29 12:33:00,
2013-05-29 08:38:00,72.3,71.1,30.04,NNW,340,0.0,0.0,96,0.05,,OVC,1.66,WeatherDisplay:10.37,2013-05-29 12:38:00,
2013-05-29 08:43:00,72.1,70.9,30.04,SE,145,26.5,26.5,96,0.07,RA,OVC,1.68,WeatherDisplay:10.37,2013-05-29 12:43:00,
2013-05-29 08:48:00,71.3,69.8,30.05,ESE,119,11.5,11.5,95,0.08,RA,OVC,1.71,WeatherDisplay:10.37,2013-05-29 12:48:00,
2013-05-29 08:53:00,71.1,69.9,30.05,SE,144,13.8,13.8,96,0.08,RA,OVC,1.71,WeatherDisplay:10.37,2013-05-29 12:53:00,
2013-05-29 08:58:00,71.1,69.9,30.05,SE,132,4.6,4.6,96,0.08,RA,OVC,1.72,WeatherDisplay:10.37,2013-05-29 12:58:00,
2013-05-29 09:03:00,71.3,70.1,30.05,East,88,16.1,16.1,96,0.14,RA,OVC,1.78,WeatherDisplay:10.37,2013-05-29 13:03:00,
2013-05-29 09:08:00,71.8,70.6,30.05,NE,34,12.7,12.7,96,0.19,RA,OVC,1.83,WeatherDisplay:10.37,2013-05-29 13:08:00,
2013-05-29 09:13:00,72.0,70.8,30.05,NNE,30,6.9,6.9,96,0.23,RA,OVC,1.88,WeatherDisplay:10.37,2013-05-29 13:13:00,
2013-05-29 09:18:00,72.0,70.8,30.05,SE,126,9.2,9.2,96,0.25,RA,OVC,1.90,WeatherDisplay:10.37,2013-05-29 13:18:00,
2013-05-29 09:23:00,72.0,70.8,30.05,ENE,57,24.2,24.2,96,0.26,RA,OVC,1.92,WeatherDisplay:10.37,2013-05-29 13:23:00,
2013-05-29 09:28:00,71.6,70.4,30.05,SSE,150,17.3,17.3,96,0.27,RA,OVC,1.93,WeatherDisplay:10.37,2013-05-29 13:28:00,
2013-05-29 09:33:00,71.1,69.9,30.05,ESE,106,17.0,17.0,96,0.28,RA,OVC,1.94,WeatherDisplay:10.37,2013-05-29 13:33:00,
2013-05-29 09:38:00,70.9,69.7,30.05,ESE,107,9.2,9.2,96,0.29,RA,OVC,1.95,WeatherDisplay:10.37,2013-05-29 13:38:00,
2013-05-29 09:43:00,70.8,69.6,30.05,ESE,105,9.2,9.2,96,0.28,RA,OVC,1.96,WeatherDisplay:10.37,2013-05-29 13:43:00,
2013-05-29 09:48:00,70.8,69.6,30.06,ENE,67,0.0,0.0,96,0.25,RA,OVC,1.96,WeatherDisplay:10.37,2013-05-29 13:48:00,
2013-05-29 09:53:00,70.8,69.6,30.06,ENE,58,10.4,10.4,96,0.26,RA,OVC,1.97,WeatherDisplay:10.37,2013-05-29 13:53:00,
2013-05-29 09:58:00,71.1,69.9,30.06,ENE,60,0.0,0.0,96,0.25,RA,OVC,1.97,WeatherDisplay:10.37,2013-05-29 13:58:00,
2013-05-29 10:03:00,71.6,70.4,30.05,ENE,70,3.5,3.5,96,0.20,RA,OVC,1.98,WeatherDisplay:10.37,2013-05-29 14:03:00,
2013-05-29 10:08:00,72.3,71.1,30.05,NE,55,13.8,13.8,96,0.15,RA,OVC,1.98,WeatherDisplay:10.37,2013-05-29 14:08:00,
2013-05-29 10:13:00,72.7,71.5,30.05,ESE,111,11.5,11.5,96,0.11,RA,OVC,1.99,WeatherDisplay:10.37,2013-05-29 14:13:00,
2013-05-29 10:18:00,73.2,72.0,30.05,NE,55,5.8,5.8,96,0.10,RA,OVC,2.00,WeatherDisplay:10.37,2013-05-29 14:18:00,
2013-05-29 10:23:00,73.5,72.3,30.05,ENE,57,0.0,0.0,96,0.08,RA,OVC,2.00,WeatherDisplay:10.37,2013-05-29 14:23:00,
2013-05-29 10:28:00,73.7,72.5,30.05,East,86,6.9,0.0,96,0.07,,OVC,2.00,WeatherDisplay:10.37,2013-05-29 14:28:00,
2013-05-29 10:33:00,73.9,72.7,30.05,East,95,11.5,11.5,96,0.07,RA,OVC,2.01,WeatherDisplay:10.37,2013-05-29 14:33:00,
2013-05-29 10:38:00,73.9,72.7,30.05,East,89,17.3,17.3,96,0.07,RA,OVC,2.02,WeatherDisplay:10.37,2013-05-29 14:38:00,
2013-05-29 10:43:00,73.7,72.5,30.05,ENE,65,3.5,3.5,96,0.06,RA,OVC,2.02,WeatherDisplay:10.37,2013-05-29 14:43:00,
2013-05-29 10:48:00,73.5,72.3,30.05,NE,49,4.6,4.6,96,0.06,,OVC,2.02,WeatherDisplay:10.37,2013-05-29 14:48:00,
2013-05-29 10:53:00,73.5,72.3,30.05,ENE,77,3.5,3.5,96,0.06,RA,OVC,2.03,WeatherDisplay:10.37,2013-05-29 14:53:00,
2013-05-29 10:58:00,73.5,72.3,30.05,ENE,75,0.0,0.0,96,0.06,RA,OVC,2.03,WeatherDisplay:10.37,2013-05-29 14:58:00,
2013-05-29 11:03:00,73.9,72.7,30.06,NE,39,8.1,8.1,96,0.06,RA,OVC,2.04,WeatherDisplay:10.37,2013-05-29 15:03:00,
2013-05-29 11:08:00,73.9,72.7,30.06,ESE,106,18.4,18.4,96,0.06,RA,OVC,2.04,WeatherDisplay:10.37,2013-05-29 15:08:00,
2013-05-29 11:13:00,73.9,72.7,30.06,ENE,62,0.0,0.0,96,0.05,,OVC,2.04,WeatherDisplay:10.37,2013-05-29 15:13:00,
2013-05-29 11:18:00,73.9,72.7,30.06,East,101,9.2,9.2,96,0.04,,OVC,2.04,WeatherDisplay:10.37,2013-05-29 15:18:00,
2013-05-29 11:23:00,73.9,72.7,30.06,NE,51,8.0,8.0,96,0.04,,OVC,2.04,WeatherDisplay:10.37,2013-05-29 15:23:00,
2013-05-29 11:28:00,74.0,72.8,30.06,ENE,62,0.0,0.0,96,0.04,,OVC,2.04,WeatherDisplay:10.37,2013-05-29 15:28:00,
2013-05-29 11:33:00,74.2,73.0,30.06,East,90,0.0,0.0,96,0.04,RA,OVC,2.05,WeatherDisplay:10.37,2013-05-29 15:33:00,
2013-05-29 11:38:00,74.4,73.2,30.06,ENE,58,0.0,0.0,96,0.03,RA,OVC,2.05,WeatherDisplay:10.37,2013-05-29 15:38:00,
2013-05-29 11:43:00,74.2,73.0,30.06,East,94,1.2,0.0,96,0.03,,OVC,2.05,WeatherDisplay:10.37,2013-05-29 15:43:00,
2013-05-29 11:48:00,74.2,73.0,30.06,East,87,0.0,0.0,96,0.03,,OVC,2.05,WeatherDisplay:10.37,2013-05-29 15:48:00,
2013-05-29 11:53:00,74.4,73.2,30.06,SE,140,8.1,8.1,96,0.02,,OVC,2.05,WeatherDisplay:10.37,2013-05-29 15:53:00,
2013-05-29 11:58:00,74.4,73.2,30.06,East,88,0.0,0.0,96,0.02,,OVC,2.05,WeatherDisplay:10.37,2013-05-29 15:58:00,
2013-05-29 12:03:00,74.6,73.4,30.06,ESE,111,0.0,0.0,96,0.01,,OVC,2.05,WeatherDisplay:10.37,2013-05-29 16:03:00,
2013-05-29 12:08:00,74.6,73.4,30.06,SE,132,0.0,1.2,96,0.01,,OVC,2.05,WeatherDisplay:10.37,2013-05-29 16:08:00,
2013-05-29 12:13:00,74.7,73.5,30.06,SE,130,9.2,9.2,96,0.01,,OVC,2.05,WeatherDisplay:10.37,2013-05-29 16:13:00,
2013-05-29 12:18:00,74.7,73.5,30.06,ESE,117,0.0,0.0,96,0.01,,OVC,2.05,WeatherDisplay:10.37,2013-05-29 16:18:00,
2013-05-29 12:24:00,74.7,73.2,30.06,ENE,59,0.0,0.0,95,0.01,,OVC,2.05,WeatherDisplay:10.37,2013-05-29 16:24:00,
2013-05-29 12:28:00,74.6,73.1,30.06,ESE,111,2.3,0.0,95,0.01,,OVC,2.05,WeatherDisplay:10.37,2013-05-29 16:28:00,
2013-05-29 12:34:00,74.6,73.1,30.06,ENE,78,2.3,2.3,95,0.00,,OVC,2.05,WeatherDisplay:10.37,2013-05-29 16:34:00,
2013-05-29 12:39:00,74.6,73.1,30.06,ENE,63,0.0,0.0,95,0.00,,OVC,2.05,WeatherDisplay:10.37,2013-05-29 16:39:00,
2013-05-29 12:44:00,74.4,72.9,30.06,NE,51,5.8,5.8,95,0.00,,OVC,2.05,WeatherDisplay:10.37,2013-05-29 16:44:00,
2013-05-29 12:49:00,74.4,72.9,30.06,NE,38,0.0,0.0,95,0.00,,OVC,2.05,WeatherDisplay:10.37,2013-05-29 16:49:00,
2013-05-29 12:54:00,74.4,72.9,30.06,NE,53,0.0,0.0,95,0.01,RA,OVC,2.06,WeatherDisplay:10.37,2013-05-29 16:54:00,
2013-05-29 12:59:00,74.4,72.9,30.06,NE,53,0.0,0.0,95,0.01,RA,OVC,2.06,WeatherDisplay:10.37,2013-05-29 16:59:00,
2013-05-29 13:04:00,74.4,72.9,30.05,ESE,123,0.0,0.0,95,0.01,,OVC,2.06,WeatherDisplay:10.37,2013-05-29 17:04:00,
2013-05-29 13:09:00,74.6,73.1,30.05,ENE,71,0.0,0.0,95,0.01,,OVC,2.06,WeatherDisplay:10.37,2013-05-29 17:09:00,
2013-05-29 13:14:00,74.7,73.2,30.05,East,82,0.0,0.0,95,0.01,,OVC,2.06,WeatherDisplay:10.37,2013-05-29 17:14:00,
2013-05-29 13:19:00,74.7,73.2,30.05,SE,128,0.0,0.0,95,0.01,,OVC,2.06,WeatherDisplay:10.37,2013-05-29 17:19:00,
2013-05-29 13:24:00,74.9,73.4,30.05,East,81,4.6,0.0,95,0.01,,OVC,2.06,WeatherDisplay:10.37,2013-05-29 17:24:00,
2013-05-29 13:29:00,74.9,73.4,30.05,East,95,1.2,0.0,95,0.01,,OVC,2.06,WeatherDisplay:10.37,2013-05-29 17:29:00,
2013-05-29 13:34:00,75.1,73.6,30.05,NE,37,0.0,0.0,95,0.01,,OVC,2.06,WeatherDisplay:10.37,2013-05-29 17:34:00,
2013-05-29 13:39:00,75.3,73.5,30.05,ESE,110,0.0,0.0,94,0.01,,OVC,2.06,WeatherDisplay:10.37,2013-05-29 17:39:00,
2013-05-29 13:44:00,75.3,73.5,30.05,SSE,159,1.2,1.2,94,0.01,,OVC,2.06,WeatherDisplay:10.37,2013-05-29 17:44:00,
2013-05-29 13:49:00,75.4,73.6,30.05,East,101,0.0,0.0,94,0.01,,OVC,2.06,WeatherDisplay:10.37,2013-05-29 17:49:00,
2013-05-29 13:54:00,75.6,73.8,30.05,ESE,105,6.9,6.9,94,0.00,,OVC,2.06,WeatherDisplay:10.37,2013-05-29 17:54:00,
2013-05-29 13:59:00,75.6,73.4,30.05,East,92,4.6,4.6,93,0.00,,OVC,2.06,WeatherDisplay:10.37,2013-05-29 17:59:00,
2013-05-29 14:04:00,76.0,73.8,30.05,East,93,0.0,0.0,93,0.00,,OVC,2.06,WeatherDisplay:10.37,2013-05-29 18:04:00,
2013-05-29 14:09:00,76.3,73.8,30.05,NE,56,0.0,0.0,92,0.00,,OVC,2.06,WeatherDisplay:10.37,2013-05-29 18:09:00,
2013-05-29 14:14:00,76.8,73.6,30.05,East,86,11.5,11.5,90,0.00,,OVC,2.06,WeatherDisplay:10.37,2013-05-29 18:14:00,
2013-05-29 14:19:00,76.8,73.3,30.04,South,188,0.0,0.0,89,0.00,,OVC,2.06,WeatherDisplay:10.37,2013-05-29 18:19:00,
2013-05-29 14:24:00,76.8,72.6,30.04,ENE,71,6.0,6.0,87,0.00,,OVC,2.06,WeatherDisplay:10.37,2013-05-29 18:24:00,
2013-05-29 14:29:00,77.4,72.9,30.05,ENE,60,10.4,10.4,86,0.00,,OVC,2.06,WeatherDisplay:10.37,2013-05-29 18:29:00,
2013-05-29 14:34:00,77.4,72.5,30.05,East,86,26.5,26.5,85,0.00,,OVC,2.06,WeatherDisplay:10.37,2013-05-29 18:34:00,
2013-05-29 14:39:00,77.2,71.6,30.05,NE,55,20.7,20.7,83,0.00,,OVC,2.06,WeatherDisplay:10.37,2013-05-29 18:39:00,
2013-05-29 14:44:00,77.2,71.3,30.04,ENE,65,3.5,3.5,82,0.00,,OVC,2.06,WeatherDisplay:10.37,2013-05-29 18:44:00,
2013-05-29 14:49:00,77.4,71.5,30.04,East,80,13.8,13.8,82,0.00,,OVC,2.06,WeatherDisplay:10.37,2013-05-29 18:49:00,
2013-05-29 14:54:00,77.7,71.8,30.04,East,80,13.0,13.0,82,0.00,,OVC,2.06,WeatherDisplay:10.37,2013-05-29 18:54:00,
2013-05-29 14:59:00,78.1,71.8,30.03,NE,43,0.0,0.0,81,0.00,,OVC,2.06,WeatherDisplay:10.37,2013-05-29 18:59:00,
2013-05-29 15:04:00,78.5,72.2,30.03,ENE,75,13.8,13.8,81,0.00,,OVC,2.06,WeatherDisplay:10.37,2013-05-29 19:04:00,
2013-05-29 15:09:00,78.8,72.5,30.03,SSE,154,8.1,8.1,81,0.00,,OVC,2.06,WeatherDisplay:10.37,2013-05-29 19:09:00,
2013-05-29 15:14:00,79.0,72.7,30.02,NE,44,16.1,16.1,81,0.00,,OVC,2.06,WeatherDisplay:10.37,2013-05-29 19:14:00,
2013-05-29 15:19:00,79.2,72.5,30.02,East,96,3.5,3.5,80,0.00,,OVC,2.06,WeatherDisplay:10.37,2013-05-29 19:19:00,
2013-05-29 15:24:00,79.2,72.5,30.02,ENE,61,6.9,6.9,80,0.00,,OVC,2.06,WeatherDisplay:10.37,2013-05-29 19:24:00,
2013-05-29 15:29:00,79.4,72.3,30.01,East,94,6.9,6.9,79,0.00,,OVC,2.06,WeatherDisplay:10.37,2013-05-29 19:29:00,
2013-05-29 15:34:00,79.6,72.5,30.01,ENE,59,12.7,12.7,79,0.00,,OVC,2.06,WeatherDisplay:10.37,2013-05-29 19:34:00,
2013-05-29 15:39:00,79.8,72.7,30.01,ENE,64,13.8,13.8,79,0.00,,OVC,2.06,WeatherDisplay:10.37,2013-05-29 19:39:00,
2013-05-29 15:44:00,80.1,72.6,30.01,NE,39,0.0,0.0,78,0.00,,OVC,2.06,WeatherDisplay:10.37,2013-05-29 19:44:00,
2013-05-29 15:49:00,80.3,72.4,30.01,East,93,25.3,25.3,77,0.00,,OVC,2.06,WeatherDisplay:10.37,2013-05-29 19:49:00,
2013-05-29 15:54:00,80.5,72.6,30.01,ENE,74,0.0,0.0,77,0.00,,OVC,2.06,WeatherDisplay:10.37,2013-05-29 19:54:00,
2013-05-29 15:59:00,80.7,72.8,30.01,NE,44,2.3,2.3,77,0.00,,OVC,2.06,WeatherDisplay:10.37,2013-05-29 19:59:00,
2013-05-29 16:04:00,80.9,72.6,30.01,East,82,16.1,16.1,76,0.00,,OVC,2.06,WeatherDisplay:10.37,2013-05-29 20:04:00,
2013-05-29 16:09:00,80.5,72.2,30.01,NE,51,12.0,12.0,76,0.00,,OVC,2.06,WeatherDisplay:10.37,2013-05-29 20:09:00,
2013-05-29 16:14:00,80.3,72.0,30.02,NE,35,25.3,0.0,76,0.00,,OVC,2.06,WeatherDisplay:10.37,2013-05-29 20:14:00,
2013-05-29 16:19:00,80.3,72.4,30.02,ENE,74,18.4,18.4,77,0.00,,OVC,2.06,WeatherDisplay:10.37,2013-05-29 20:19:00,
2013-05-29 16:24:00,80.3,72.0,30.02,East,90,19.6,19.6,76,0.00,,OVC,2.06,WeatherDisplay:10.37,2013-05-29 20:24:00,
2013-05-29 16:29:00,80.1,72.2,30.01,ENE,59,10.4,10.4,77,0.00,,OVC,2.06,WeatherDisplay:10.37,2013-05-29 20:29:00,
2013-05-29 16:34:00,80.3,72.8,30.01,ENE,61,19.6,19.6,78,0.00,,OVC,2.06,WeatherDisplay:10.37,2013-05-29 20:34:00,
2013-05-29 16:39:00,80.1,72.2,30.01,NNE,31,13.8,13.8,77,0.00,,OVC,2.06,WeatherDisplay:10.37,2013-05-29 20:39:00,
2013-05-29 16:44:00,79.2,70.6,30.01,ESE,102,17.3,17.3,75,0.00,,OVC,2.06,WeatherDisplay:10.37,2013-05-29 20:44:00,
2013-05-29 16:49:00,78.5,70.3,30.01,ENE,74,20.7,20.7,76,0.00,,OVC,2.06,WeatherDisplay:10.37,2013-05-29 20:49:00,
2013-05-29 16:54:00,78.5,70.7,30.01,ENE,75,7.0,7.0,77,0.00,,OVC,2.06,WeatherDisplay:10.37,2013-05-29 20:54:00,
2013-05-29 16:59:00,78.3,70.5,30.01,ENE,69,19.6,19.6,77,0.00,,OVC,2.06,WeatherDisplay:10.37,2013-05-29 20:59:00,
2013-05-29 17:04:00,77.7,69.5,30.01,ENE,58,17.3,17.3,76,0.00,,OVC,2.06,WeatherDisplay:10.37,2013-05-29 21:04:00,
2013-05-29 17:09:00,77.0,68.9,30.01,North,9,17.3,17.3,76,0.00,,OVC,2.06,WeatherDisplay:10.37,2013-05-29 21:09:00,
2013-05-29 17:14:00,77.0,68.9,30.02,SE,128,24.0,24.0,76,0.00,,OVC,2.06,WeatherDisplay:10.37,2013-05-29 21:14:00,
2013-05-29 17:19:00,76.7,68.6,30.02,South,189,44.9,44.9,76,0.00,,OVC,2.06,WeatherDisplay:10.37,2013-05-29 21:19:00,
2013-05-29 17:24:00,76.5,69.1,30.02,SE,146,12.7,12.7,78,0.00,,OVC,2.06,WeatherDisplay:10.37,2013-05-29 21:24:00,
2013-05-29 17:29:00,76.0,69.4,30.02,SE,130,40.3,40.3,80,0.00,,OVC,2.06,WeatherDisplay:10.37,2013-05-29 21:29:00,
2013-05-29 17:34:00,75.8,69.9,30.02,ENE,65,31.1,31.1,82,0.00,,OVC,2.06,WeatherDisplay:10.37,2013-05-29 21:34:00,
2013-05-29 17:39:00,75.8,69.6,30.02,ENE,78,15.0,15.0,81,0.00,,OVC,2.06,WeatherDisplay:10.37,2013-05-29 21:39:00,
2013-05-29 17:44:00,75.6,69.0,30.02,NE,44,19.0,19.0,80,0.00,,OVC,2.06,WeatherDisplay:10.37,2013-05-29 21:44:00,
2013-05-29 17:49:00,75.6,68.6,30.02,SE,133,11.5,11.5,79,0.00,,OVC,2.06,WeatherDisplay:10.37,2013-05-29 21:49:00,
2013-05-29 17:55:00,75.4,68.8,30.02,NE,54,10.4,10.4,80,0.00,,OVC,2.06,WeatherDisplay:10.37,2013-05-29 21:55:00,
2013-05-29 18:00:00,75.3,68.3,30.01,ENE,64,13.8,13.8,79,0.00,,OVC,2.06,WeatherDisplay:10.37,2013-05-29 22:00:00,
2013-05-29 18:05:00,75.3,68.0,30.01,SSE,153,18.0,18.0,78,0.00,,OVC,2.06,WeatherDisplay:10.37,2013-05-29 22:05:00,
2013-05-29 18:10:00,75.4,67.3,30.01,SE,131,3.5,3.5,76,0.00,,OVC,2.06,WeatherDisplay:10.37,2013-05-29 22:10:00,
2013-05-29 18:15:00,75.6,67.1,30.01,ESE,102,0.0,0.0,75,0.00,,OVC,2.06,WeatherDisplay:10.37,2013-05-29 22:15:00,
2013-05-29 18:20:00,75.8,66.9,30.01,ESE,113,11.5,11.5,74,0.00,,OVC,2.06,WeatherDisplay:10.37,2013-05-29 22:20:00,
2013-05-29 18:25:00,76.0,67.1,30.01,NNE,13,1.2,3.3,74,0.00,,OVC,2.06,WeatherDisplay:10.37,2013-05-29 22:25:00,
2013-05-29 18:30:00,76.0,67.1,30.00,ESE,117,0.0,0.7,74,0.00,,OVC,2.06,WeatherDisplay:10.37,2013-05-29 22:30:00,
2013-05-29 18:35:00,76.1,67.2,30.00,SE,126,1.2,0.0,74,0.00,,OVC,2.06,WeatherDisplay:10.37,2013-05-29 22:35:00,
2013-05-29 18:40:00,76.3,67.4,30.00,SSW,193,11.5,11.5,74,0.00,,OVC,2.06,WeatherDisplay:10.37,2013-05-29 22:40:00,
2013-05-29 18:45:00,76.5,67.2,29.99,SE,142,6.9,6.9,73,0.00,,OVC,2.06,WeatherDisplay:10.37,2013-05-29 22:45:00,
2013-05-29 18:50:00,76.7,67.0,29.99,ESE,109,0.0,0.0,72,0.00,,OVC,2.06,WeatherDisplay:10.37,2013-05-29 22:50:00,
2013-05-29 18:55:00,76.8,67.1,29.99,ESE,120,1.2,0.0,72,0.00,,OVC,2.06,WeatherDisplay:10.37,2013-05-29 22:55:00,
2013-05-29 19:00:00,77.0,67.3,30.00,East,94,0.0,1.4,72,0.00,,OVC,2.06,WeatherDisplay:10.37,2013-05-29 23:00:00,
2013-05-29 19:05:00,77.4,68.1,30.00,ESE,110,3.5,3.5,73,0.00,,OVC,2.06,WeatherDisplay:10.37,2013-05-29 23:05:00,
2013-05-29 19:10:00,77.4,68.5,30.00,SE,138,16.1,16.1,74,0.00,,OVC,2.06,WeatherDisplay:10.37,2013-05-29 23:10:00,
2013-05-29 19:15:00,77.6,69.0,30.00,SE,132,1.2,0.0,75,0.00,,OVC,2.06,WeatherDisplay:10.37,2013-05-29 23:15:00,
2013-05-29 19:20:00,77.7,69.5,30.00,ESE,107,6.9,6.9,76,0.00,,OVC,2.06,WeatherDisplay:10.37,2013-05-29 23:20:00,
2013-05-29 19:25:00,77.7,69.9,30.00,ENE,67,23.0,23.0,77,0.00,,OVC,2.06,WeatherDisplay:10.37,2013-05-29 23:25:00,
2013-05-29 19:30:00,77.7,70.3,30.00,ESE,104,0.0,0.0,78,0.00,,OVC,2.06,WeatherDisplay:10.37,2013-05-29 23:30:00,
2013-05-29 19:35:00,77.7,70.7,30.00,North,5,11.5,11.5,79,0.00,,OVC,2.06,WeatherDisplay:10.37,2013-05-29 23:35:00,
2013-05-29 19:40:00,77.7,70.7,30.00,SE,128,9.2,9.2,79,0.00,,OVC,2.06,WeatherDisplay:10.37,2013-05-29 23:40:00,
2013-05-29 19:45:00,77.7,71.0,30.00,SE,140,3.5,3.5,80,0.00,,OVC,2.06,WeatherDisplay:10.37,2013-05-29 23:45:00,
2013-05-29 19:50:00,77.7,71.0,30.00,NE,55,4.6,4.6,80,0.00,,OVC,2.06,WeatherDisplay:10.37,2013-05-29 23:50:00,
2013-05-29 19:55:00,77.9,70.9,30.00,ESE,123,0.0,0.0,79,0.00,,OVC,2.06,WeatherDisplay:10.37,2013-05-29 23:55:00,
2013-05-29 20:00:00,77.9,71.2,30.01,SSE,168,11.5,11.5,80,0.00,,OVC,2.06,WeatherDisplay:10.37,2013-05-30 00:00:00,
2013-05-29 20:05:00,78.1,71.8,30.01,ENE,67,10.4,10.4,81,0.00,,OVC,2.06,WeatherDisplay:10.37,2013-05-30 00:05:00,
2013-05-29 20:10:00,78.1,71.8,30.01,North,355,0.0,0.0,81,0.00,,OVC,2.06,WeatherDisplay:10.37,2013-05-30 00:10:00,
2013-05-29 20:15:00,77.9,71.6,30.01,ENE,78,15.0,15.0,81,0.00,,OVC,2.06,WeatherDisplay:10.37,2013-05-30 00:15:00,
2013-05-29 20:20:00,77.9,71.6,30.01,East,99,11.5,11.5,81,0.00,,OVC,2.06,WeatherDisplay:10.37,2013-05-30 00:20:00,
2013-05-29 20:25:00,77.9,71.2,30.01,East,88,8.1,8.1,80,0.00,,OVC,2.06,WeatherDisplay:10.37,2013-05-30 00:25:00,
2013-05-29 20:30:00,77.9,70.9,30.01,SSE,152,6.9,6.9,79,0.00,,OVC,2.06,WeatherDisplay:10.37,2013-05-30 00:30:00,
2013-05-29 20:35:00,77.9,70.9,30.01,West,278,0.0,0.0,79,0.00,,OVC,2.06,WeatherDisplay:10.37,2013-05-30 00:35:00,
2013-05-29 20:40:00,77.9,70.9,30.01,ESE,110,0.0,0.0,79,0.00,,OVC,2.06,WeatherDisplay:10.37,2013-05-30 00:40:00,
2013-05-29 20:45:00,77.7,70.7,30.01,ESE,113,17.3,17.3,79,0.00,,OVC,2.06,WeatherDisplay:10.37,2013-05-30 00:45:00,
2013-05-29 20:50:00,77.4,69.2,30.01,ESE,121,18.4,18.4,76,0.00,,OVC,2.06,WeatherDisplay:10.37,2013-05-30 00:50:00,
2013-05-29 20:55:00,77.2,69.0,30.01,NE,51,13.8,13.8,76,0.00,,OVC,2.06,WeatherDisplay:10.37,2013-05-30 00:55:00,
2013-05-29 21:00:00,77.0,69.2,30.01,East,82,4.6,4.6,77,0.00,,OVC,2.06,WeatherDisplay:10.37,2013-05-30 01:00:00,
2013-05-29 21:05:00,77.0,69.6,30.01,ENE,65,30.0,30.0,78,0.00,,OVC,2.06,WeatherDisplay:10.37,2013-05-30 01:05:00,
2013-05-29 21:10:00,76.5,70.2,30.01,SSE,154,12.7,12.7,81,0.01,RA,OVC,2.07,WeatherDisplay:10.37,2013-05-30 01:10:00,
2013-05-29 21:15:00,76.3,70.4,30.01,ENE,63,0.0,0.0,82,0.01,RA,OVC,2.07,WeatherDisplay:10.37,2013-05-30 01:15:00,
2013-05-29 21:20:00,76.1,70.9,30.01,ENE,68,0.0,0.0,84,0.01,,OVC,2.07,WeatherDisplay:10.37,2013-05-30 01:20:00,
2013-05-29 21:25:00,76.0,71.5,30.01,ENE,71,18.4,18.4,86,0.01,,OVC,2.07,WeatherDisplay:10.37,2013-05-30 01:25:00,
2013-05-29 21:30:00,75.8,71.0,30.02,ENE,63,18.4,18.4,85,0.01,,OVC,2.07,WeatherDisplay:10.37,2013-05-30 01:30:00,
2013-05-29 21:35:00,75.4,70.9,30.02,ENE,62,15.0,15.0,86,0.07,RA,OVC,2.14,WeatherDisplay:10.37,2013-05-30 01:35:00,
2013-05-29 21:40:00,74.6,70.1,30.02,SE,134,16.1,16.1,86,0.08,RA,OVC,2.14,WeatherDisplay:10.37,2013-05-30 01:40:00,
2013-05-29 21:45:00,73.9,69.8,30.02,SE,146,0.0,0.0,87,0.09,RA,OVC,2.15,WeatherDisplay:10.37,2013-05-30 01:45:00,
2013-05-29 21:50:00,73.7,69.9,30.02,ENE,69,14.0,14.0,88,0.09,RA,OVC,2.15,WeatherDisplay:10.37,2013-05-30 01:50:00,
2013-05-29 21:55:00,74.0,70.6,30.02,East,79,0.0,0.0,89,0.09,,OVC,2.15,WeatherDisplay:10.37,2013-05-30 01:55:00,
2013-05-29 22:00:00,74.2,71.1,30.02,East,90,9.2,9.2,90,0.09,,OVC,2.15,WeatherDisplay:10.37,2013-05-30 02:00:00,
2013-05-29 22:05:00,74.4,71.3,30.02,East,83,0.0,0.0,90,0.15,RA,OVC,2.22,WeatherDisplay:10.37,2013-05-30 02:05:00,
2013-05-29 22:10:00,74.2,71.4,30.02,SE,125,6.9,6.9,91,0.19,RA,OVC,2.26,WeatherDisplay:10.37,2013-05-30 02:10:00,
2013-05-29 22:15:00,74.2,71.4,30.02,SE,133,0.0,0.0,91,0.19,RA,OVC,2.26,WeatherDisplay:10.37,2013-05-30 02:15:00,
2013-05-29 22:20:00,74.4,71.9,30.02,SE,126,0.0,0.0,92,0.20,RA,OVC,2.27,WeatherDisplay:10.37,2013-05-30 02:20:00,
2013-05-29 22:25:00,74.4,71.9,30.02,SE,126,0.0,0.0,92,0.20,RA,OVC,2.27,WeatherDisplay:10.37,2013-05-30 02:25:00,
2013-05-29 22:30:00,74.6,72.1,30.03,SSE,165,29.9,29.9,92,0.20,,OVC,2.27,WeatherDisplay:10.37,2013-05-30 02:30:00,
2013-05-29 22:35:00,73.9,71.4,30.03,East,101,25.3,25.3,92,0.16,RA,OVC,2.29,WeatherDisplay:10.37,2013-05-30 02:35:00,
2013-05-29 22:40:00,73.5,71.0,30.03,SE,144,22.0,22.0,92,0.16,RA,OVC,2.30,WeatherDisplay:10.37,2013-05-30 02:40:00,
2013-05-29 22:45:00,73.2,70.7,30.03,SSE,147,7.0,7.0,92,0.15,RA,OVC,2.30,WeatherDisplay:10.37,2013-05-30 02:45:00,
2013-05-29 22:50:00,73.2,70.7,30.03,ESE,115,16.0,16.0,92,0.15,,OVC,2.30,WeatherDisplay:10.37,2013-05-30 02:50:00,
2013-05-29 22:55:00,72.8,70.3,30.03,East,88,17.3,17.3,92,0.15,,OVC,2.30,WeatherDisplay:10.37,2013-05-30 02:55:00,
2013-05-29 23:00:00,72.5,70.0,30.04,SE,132,27.6,27.6,92,0.18,RA,OVC,2.35,WeatherDisplay:10.37,2013-05-30 03:00:00,
2013-05-29 23:05:00,72.3,69.8,30.04,ESE,108,25.3,25.3,92,0.16,RA,OVC,2.37,WeatherDisplay:10.37,2013-05-30 03:05:00,
2013-05-29 23:10:00,72.3,69.8,30.04,NE,44,16.1,16.1,92,0.11,RA,OVC,2.37,WeatherDisplay:10.37,2013-05-30 03:10:00,
2013-05-29 23:15:00,72.0,69.5,30.04,SSE,147,10.4,10.4,92,0.12,RA,OVC,2.38,WeatherDisplay:10.37,2013-05-30 03:15:00,
2013-05-29 23:20:00,70.9,68.1,30.04,SE,139,11.5,11.5,91,0.12,RA,OVC,2.39,WeatherDisplay:10.37,2013-05-30 03:20:00,
2013-05-29 23:25:00,70.8,68.0,30.04,ESE,119,16.1,0.0,91,0.12,RA,OVC,2.39,WeatherDisplay:10.37,2013-05-30 03:25:00,
2013-05-29 23:30:00,70.6,68.2,30.04,ESE,109,0.0,0.0,92,0.12,,OVC,2.39,WeatherDisplay:10.37,2013-05-30 03:30:00,
2013-05-29 23:35:00,70.8,68.4,30.04,ENE,63,13.8,13.8,92,0.10,,OVC,2.39,WeatherDisplay:10.37,2013-05-30 03:35:00,
2013-05-29 23:41:00,71.3,68.9,30.04,NE,48,25.3,25.3,92,0.09,,OVC,2.39,WeatherDisplay:10.37,2013-05-30 03:41:00,
2013-05-29 23:46:00,71.5,69.1,30.04,ENE,57,16.1,16.1,92,0.09,,OVC,2.39,WeatherDisplay:10.37,2013-05-30 03:46:00,
2013-05-29 23:51:00,71.3,68.9,30.04,ENE,69,19.6,19.6,92,0.09,,OVC,2.39,WeatherDisplay:10.37,2013-05-30 03:51:00,
2013-05-29 23:56:00,71.3,68.9,30.04,ENE,67,9.2,9.2,92,0.09,,OVC,2.40,WeatherDisplay:10.37,2013-05-30 03:56:00,